createdAt,value
2022-10-24T00:01:24.769Z,5.13
2022-10-24T00:03:52.597Z,5.50
2022-10-24T00:06:22.442Z,5.20
2022-10-24T00:08:50.286Z,5.33
2022-10-24T00:11:20.983Z,5.57
2022-10-24T00:13:48.986Z,5.23
2022-10-24T00:16:16.804Z,5.80
2022-10-24T00:18:44.971Z,5.30
2022-10-24T00:21:13.087Z,5.87
2022-10-24T00:23:42.022Z,5.43
2022-10-24T00:26:10.200Z,4.90
2022-10-24T00:28:38.604Z,5.80
2022-10-24T00:31:08.270Z,5.33
2022-10-24T00:33:36.091Z,5.57
2022-10-24T00:36:03.800Z,6.10
2022-10-24T00:38:31.381Z,5.60
2022-10-24T00:41:00.299Z,5.70
2022-10-24T00:43:28.312Z,5.97
2022-10-24T00:45:57.408Z,5.77
2022-10-24T00:48:29.306Z,5.47
2022-10-24T00:51:00.093Z,4.77
2022-10-24T00:53:30.159Z,5.07
2022-10-24T00:56:02.117Z,5.20
2022-10-24T00:58:33.620Z,5.03
2022-10-24T01:01:01.918Z,4.60
2022-10-24T01:03:29.767Z,4.53
2022-10-24T01:06:10.173Z,4.50
2022-10-24T01:08:45.504Z,5.20
2022-10-24T01:11:28.316Z,4.20
2022-10-24T01:14:03.217Z,3.50
2022-10-24T01:16:38.541Z,4.90
2022-10-24T01:19:27.504Z,5.70
2022-10-24T01:21:59.760Z,4.73
2022-10-24T01:24:39.731Z,4.57
2022-10-24T01:27:40.238Z,5.27
2022-10-24T01:30:10.702Z,5.50
2022-10-24T01:32:49.180Z,5.17
2022-10-24T01:35:25.537Z,4.97
2022-10-24T01:38:00.048Z,5.70
2022-10-24T01:40:32.464Z,5.37
2022-10-24T01:43:04.140Z,5.43
2022-10-24T01:45:36.480Z,5.23
2022-10-24T01:48:08.843Z,4.67
2022-10-24T01:50:38.732Z,4.07
2022-10-24T01:53:07.467Z,4.73
2022-10-24T01:55:35.519Z,4.67
2022-10-24T01:58:03.079Z,5.07
2022-10-24T02:00:30.817Z,4.40
2022-10-24T02:03:03.038Z,4.63
2022-10-24T02:05:34.768Z,4.27
2022-10-24T02:08:07.057Z,4.90
2022-10-24T02:10:40.480Z,4.80
2022-10-24T02:13:17.773Z,5.07
2022-10-24T02:15:50.177Z,4.40
2022-10-24T02:18:19.806Z,4.83
2022-10-24T02:20:54.503Z,4.27
2022-10-24T02:23:28.161Z,4.57
2022-10-24T02:25:59.929Z,4.17
2022-10-24T02:28:34.834Z,4.67
2022-10-24T02:31:07.898Z,5.17
2022-10-24T02:33:40.730Z,4.03
2022-10-24T02:36:11.473Z,3.90
2022-10-24T02:38:42.259Z,3.83
2022-10-24T02:41:14.033Z,4.57
2022-10-24T02:43:43.415Z,4.43
2022-10-24T02:46:12.166Z,5.00
2022-10-24T02:48:46.215Z,4.97
2022-10-24T02:51:15.425Z,5.27
2022-10-24T02:53:43.183Z,4.60
2022-10-24T02:56:10.817Z,5.13
2022-10-24T02:58:38.416Z,5.00
2022-10-24T03:01:06.262Z,4.70
2022-10-24T03:03:33.975Z,4.27
2022-10-24T03:06:02.985Z,4.10
2022-10-24T03:08:30.545Z,4.60
2022-10-24T03:10:58.249Z,4.53
2022-10-24T03:13:25.865Z,4.10
2022-10-24T03:15:53.498Z,4.70
2022-10-24T03:18:21.321Z,4.40
2022-10-24T03:20:48.879Z,4.93
2022-10-24T03:23:19.280Z,4.90
2022-10-24T03:25:47.181Z,4.67
2022-10-24T03:28:14.796Z,3.80
2022-10-24T03:30:42.389Z,5.20
2022-10-24T03:33:10.023Z,4.50
2022-10-24T03:35:38.162Z,3.50
2022-10-24T03:38:08.092Z,4.23
2022-10-24T03:40:37.441Z,4.00
2022-10-24T03:43:05.423Z,4.37
2022-10-24T03:45:33.009Z,3.93
2022-10-24T03:48:00.606Z,4.13
2022-10-24T03:50:28.237Z,5.23
2022-10-24T03:52:55.921Z,4.77
2022-10-24T03:55:23.909Z,4.00
2022-10-24T03:57:52.872Z,4.57
2022-10-24T04:00:20.791Z,4.60
2022-10-24T04:02:50.642Z,3.63
2022-10-24T04:05:18.730Z,4.73
2022-10-24T04:07:46.915Z,4.50
2022-10-24T04:10:14.819Z,4.63
2022-10-24T04:12:42.503Z,5.00
2022-10-24T04:15:12.344Z,4.47
2022-10-24T04:17:40.189Z,4.33
2022-10-24T04:20:09.144Z,4.57
2022-10-24T04:22:36.755Z,4.50
2022-10-24T04:25:05.354Z,4.53
2022-10-24T04:27:32.932Z,4.90
2022-10-24T04:30:00.463Z,4.60
2022-10-24T04:32:29.456Z,4.43
2022-10-24T04:34:57.023Z,4.30
2022-10-24T04:37:24.629Z,4.60
2022-10-24T04:39:53.691Z,4.57
2022-10-24T04:42:21.577Z,5.07
2022-10-24T04:44:49.144Z,5.57
2022-10-24T04:47:17.434Z,5.13
2022-10-24T04:49:46.431Z,5.43
2022-10-24T04:52:13.943Z,5.30
2022-10-24T04:54:41.601Z,5.40
2022-10-24T04:57:09.170Z,5.67
2022-10-24T04:59:36.720Z,5.50
2022-10-24T05:02:04.364Z,4.27
2022-10-24T05:04:32.066Z,4.33
2022-10-24T05:07:01.534Z,4.20
2022-10-24T05:09:29.188Z,4.20
2022-10-24T05:11:57.441Z,4.50
2022-10-24T05:14:25.500Z,4.70
2022-10-24T05:16:53.077Z,4.27
2022-10-24T05:19:20.658Z,5.03
2022-10-24T05:21:48.218Z,4.43
2022-10-24T05:24:17.542Z,4.80
2022-10-24T05:26:45.123Z,4.40
2022-10-24T05:29:12.700Z,4.13
2022-10-24T05:31:40.365Z,4.30
2022-10-24T05:34:07.967Z,3.70
2022-10-24T05:36:35.569Z,4.47
2022-10-24T05:39:03.159Z,4.93
2022-10-24T05:41:32.585Z,4.83
2022-10-24T05:44:00.327Z,3.90
2022-10-24T05:46:28.099Z,4.10
2022-10-24T05:48:55.660Z,4.43
2022-10-24T05:51:23.346Z,4.73
2022-10-24T05:53:50.933Z,4.70
2022-10-24T05:56:18.527Z,4.77
2022-10-24T05:58:47.488Z,4.60
2022-10-24T06:01:15.205Z,4.80
2022-10-24T06:03:42.864Z,4.57
2022-10-24T06:06:11.398Z,4.20
2022-10-24T06:08:39.441Z,4.43
2022-10-24T06:11:10.754Z,4.47
2022-10-24T06:13:38.686Z,4.43
2022-10-24T06:16:09.037Z,3.90
2022-10-24T06:18:37.027Z,4.17
2022-10-24T06:21:06.596Z,5.05
2022-10-24T06:23:34.723Z,4.27
2022-10-24T06:26:02.450Z,4.50
2022-10-24T06:28:29.993Z,4.40
2022-10-24T06:30:57.824Z,4.40
2022-10-24T06:33:26.826Z,4.23
2022-10-24T06:35:54.390Z,4.57
2022-10-24T06:38:21.976Z,4.33
2022-10-24T06:40:49.525Z,4.07
2022-10-24T06:43:19.459Z,4.17
2022-10-24T06:45:47.071Z,4.50
2022-10-24T06:48:14.780Z,4.00
2022-10-24T06:50:43.843Z,4.27
2022-10-24T06:53:11.840Z,4.27
2022-10-24T06:55:40.529Z,4.13
2022-10-24T06:58:08.307Z,4.83
2022-10-24T07:00:35.947Z,5.00
2022-10-24T07:03:03.503Z,4.07
2022-10-24T07:05:31.092Z,4.47
2022-10-24T07:08:00.059Z,4.27
2022-10-24T07:10:27.593Z,4.80
2022-10-24T07:12:55.161Z,4.60
2022-10-24T07:15:23.073Z,5.43
2022-10-24T07:17:50.712Z,4.57
2022-10-24T07:20:18.313Z,5.07
2022-10-24T07:22:46.076Z,5.10
2022-10-24T07:25:15.245Z,5.33
2022-10-24T07:27:43.041Z,4.73
2022-10-24T07:30:17.586Z,5.07
2022-10-24T07:32:45.424Z,4.63
2022-10-24T07:35:14.062Z,4.93
2022-10-24T07:37:41.954Z,4.30
2022-10-24T07:40:10.941Z,4.50
2022-10-24T07:42:39.884Z,4.27
2022-10-24T07:45:08.550Z,4.60
2022-10-24T07:47:36.144Z,4.43
2022-10-24T07:50:04.602Z,4.37
2022-10-24T07:52:32.205Z,3.87
2022-10-24T07:54:59.766Z,4.40
2022-10-24T07:57:28.022Z,3.37
2022-10-24T07:59:56.963Z,4.77
2022-10-24T08:02:24.524Z,3.73
2022-10-24T08:04:52.105Z,4.20
2022-10-24T08:07:19.683Z,5.03
2022-10-24T08:09:51.954Z,5.90
2022-10-24T08:12:19.577Z,3.90
2022-10-24T08:14:47.273Z,3.97
2022-10-24T08:17:18.421Z,4.00
2022-10-24T08:19:46.229Z,4.53
2022-10-24T08:22:13.838Z,4.17
2022-10-24T08:24:41.483Z,3.83
2022-10-24T08:27:09.212Z,4.27
2022-10-24T08:29:37.105Z,4.00
2022-10-24T08:32:06.745Z,3.93
2022-10-24T08:34:35.857Z,4.00
2022-10-24T08:37:06.278Z,4.70
2022-10-24T08:39:33.891Z,4.13
2022-10-24T08:42:04.941Z,3.93
2022-10-24T08:44:35.649Z,4.50
2022-10-24T08:47:09.815Z,4.23
2022-10-24T08:49:47.826Z,3.67
2022-10-24T08:52:24.565Z,4.03
2022-10-24T08:54:53.477Z,4.63
2022-10-24T08:57:25.996Z,4.13
2022-10-24T08:59:58.026Z,5.00
2022-10-24T09:02:28.078Z,3.60
2022-10-24T09:05:00.528Z,4.27
2022-10-24T09:07:28.668Z,3.67
2022-10-24T09:10:06.684Z,3.30
2022-10-24T09:12:36.719Z,4.63
2022-10-24T09:15:14.962Z,5.17
2022-10-24T09:17:44.007Z,3.97
2022-10-24T09:20:24.235Z,3.00
2022-10-24T09:22:52.361Z,3.33
2022-10-24T09:25:23.106Z,3.20
2022-10-24T09:27:51.622Z,3.42
2022-10-24T09:30:22.081Z,3.05
2022-10-24T09:32:49.829Z,3.28
2022-10-24T09:35:22.983Z,3.33
2022-10-24T09:37:52.543Z,2.92
2022-10-24T09:40:23.360Z,3.83
2022-10-24T09:42:55.357Z,3.38
2022-10-24T09:45:38.624Z,3.88
2022-10-24T09:48:17.646Z,3.15
2022-10-24T09:50:49.544Z,3.28
2022-10-24T09:53:27.323Z,3.60
2022-10-24T09:55:58.042Z,3.47
2022-10-24T09:58:32.637Z,3.10
2022-10-24T10:01:03.881Z,2.83
2022-10-24T10:03:31.630Z,2.63
2022-10-24T10:06:04.517Z,3.47
2022-10-24T10:08:33.895Z,3.03
2022-10-24T10:11:05.973Z,3.08
2022-10-24T10:13:38.583Z,2.83
2022-10-24T10:16:10.751Z,2.90
2022-10-24T10:18:46.968Z,2.67
2022-10-24T10:21:18.342Z,3.80
2022-10-24T10:23:47.842Z,4.60
2022-10-24T10:26:22.570Z,4.13
2022-10-24T10:29:21.747Z,2.63
2022-10-24T10:31:54.058Z,3.03
2022-10-24T10:34:29.739Z,3.47
2022-10-24T10:37:24.387Z,2.83
2022-10-24T10:40:24.468Z,3.50
2022-10-24T10:43:05.191Z,2.90
2022-10-24T10:45:36.999Z,2.90
2022-10-24T10:48:21.021Z,3.40
2022-10-24T10:50:55.365Z,3.30
2022-10-24T10:53:32.488Z,2.92
2022-10-24T10:56:07.535Z,2.88
2022-10-24T10:58:44.417Z,2.85
2022-10-24T11:01:21.945Z,3.20
2022-10-24T11:03:55.106Z,2.83
2022-10-24T11:06:33.206Z,2.88
2022-10-24T11:09:27.580Z,3.03
2022-10-24T11:12:03.961Z,2.92
2022-10-24T11:14:36.071Z,2.95
2022-10-24T11:17:11.938Z,2.63
2022-10-24T11:19:53.980Z,3.80
2022-10-24T11:22:26.198Z,2.85
2022-10-24T11:25:01.285Z,2.78
2022-10-24T11:27:37.862Z,2.40
2022-10-24T11:30:13.391Z,2.97
2022-10-24T11:32:45.631Z,2.80
2022-10-24T11:35:23.208Z,2.42
2022-10-24T11:37:53.736Z,2.50
2022-10-24T11:40:25.639Z,2.35
2022-10-24T11:42:59.192Z,3.20
2022-10-24T11:45:30.057Z,2.83
2022-10-24T11:48:11.618Z,3.10
2022-10-24T11:50:43.737Z,2.72
2022-10-24T11:53:24.345Z,2.90
2022-10-24T11:55:57.854Z,2.90
2022-10-24T11:58:28.908Z,2.35
2022-10-24T12:01:14.515Z,2.72
2022-10-24T12:04:15.097Z,3.15
2022-10-24T12:07:23.752Z,2.55
2022-10-24T12:10:15.833Z,2.85
2022-10-24T12:13:22.105Z,2.33
2022-10-24T12:16:00.576Z,2.60
2022-10-24T12:18:34.204Z,3.10
2022-10-24T12:21:05.282Z,2.97
2022-10-24T12:23:33.548Z,2.95
2022-10-24T12:26:06.637Z,2.80
2022-10-24T12:28:36.418Z,3.03
2022-10-24T12:31:22.346Z,2.13
2022-10-24T12:34:27.326Z,2.60
2022-10-24T12:37:14.125Z,2.63
2022-10-24T12:39:47.152Z,2.78
2022-10-24T12:42:17.476Z,2.80
2022-10-24T12:44:50.405Z,2.58
2022-10-24T12:47:39.944Z,2.30
2022-10-24T12:50:44.903Z,2.60
2022-10-24T12:53:35.030Z,2.33
2022-10-24T12:56:15.510Z,2.60
2022-10-24T12:58:45.484Z,2.10
2022-10-24T13:01:27.269Z,2.15
2022-10-24T13:04:21.562Z,2.30
2022-10-24T13:07:01.416Z,2.75
2022-10-24T13:09:39.289Z,2.13
2022-10-24T13:12:32.352Z,2.25
2022-10-24T13:15:14.631Z,2.47
2022-10-24T13:17:50.168Z,2.67
2022-10-24T13:20:22.541Z,2.40
2022-10-24T13:22:51.706Z,2.42
2022-10-24T13:25:33.579Z,2.65
2022-10-24T13:28:38.973Z,2.25
2022-10-24T13:31:42.810Z,2.13
2022-10-24T13:34:31.535Z,2.00
2022-10-24T13:37:03.630Z,1.75
2022-10-24T13:39:37.494Z,1.38
2022-10-24T13:42:19.921Z,1.35
2022-10-24T13:44:50.929Z,1.10
2022-10-24T13:47:23.742Z,1.50
2022-10-24T13:49:58.899Z,1.50
2022-10-24T13:52:33.698Z,1.35
2022-10-24T13:55:06.085Z,1.60
2022-10-24T13:57:37.980Z,1.77
2022-10-24T14:00:09.550Z,1.80
2022-10-24T14:02:42.757Z,1.27
2022-10-24T14:05:24.609Z,1.25
2022-10-24T14:07:52.528Z,1.40
2022-10-24T14:10:22.502Z,1.40
2022-10-24T14:12:51.916Z,1.67
2022-10-24T14:15:22.368Z,1.50
2022-10-24T14:17:58.815Z,3.38
2022-10-24T14:20:29.959Z,1.67
2022-10-24T14:22:58.043Z,1.33
2022-10-24T14:25:32.981Z,1.20
2022-10-24T14:28:03.281Z,1.20
2022-10-24T14:30:34.947Z,1.10
2022-10-24T14:33:25.387Z,1.20
2022-10-24T14:35:57.969Z,1.30
2022-10-24T14:38:27.764Z,1.42
2022-10-24T14:41:08.338Z,1.63
2022-10-24T14:43:39.829Z,1.30
2022-10-24T14:46:27.941Z,1.58
2022-10-24T14:48:55.728Z,1.55
2022-10-24T14:51:28.116Z,1.30
2022-10-24T14:53:56.894Z,1.13
2022-10-24T14:56:28.285Z,0.97
2022-10-24T14:58:58.124Z,0.97
2022-10-24T15:01:26.235Z,1.07
2022-10-24T15:03:55.834Z,1.20
2022-10-24T15:06:27.542Z,1.50
2022-10-24T15:09:04.784Z,2.13
2022-10-24T15:11:40.259Z,1.90
2022-10-24T15:14:39.445Z,1.50
2022-10-24T15:17:25.858Z,1.47
2022-10-24T15:19:58.346Z,1.60
2022-10-24T15:22:30.308Z,1.10
2022-10-24T15:25:00.796Z,1.47
2022-10-24T15:27:31.888Z,1.43
2022-10-24T15:29:59.479Z,1.57
2022-10-24T15:32:27.091Z,1.20
2022-10-24T15:34:55.716Z,1.60
2022-10-24T15:37:25.763Z,1.30
2022-10-24T15:39:55.807Z,1.30
2022-10-24T15:42:23.519Z,1.43
2022-10-24T15:44:51.178Z,1.10
2022-10-24T15:47:23.726Z,1.50
2022-10-24T15:49:52.118Z,1.63
2022-10-24T15:52:19.746Z,1.40
2022-10-24T15:54:47.371Z,1.30
2022-10-24T15:57:17.323Z,1.73
2022-10-24T15:59:44.940Z,1.43
2022-10-24T16:02:17.836Z,1.30
2022-10-24T16:04:45.529Z,2.07
2022-10-24T16:07:13.191Z,0.90
2022-10-24T16:09:40.842Z,1.30
2022-10-24T16:12:08.969Z,0.90
2022-10-24T16:14:37.934Z,1.37
2022-10-24T16:17:05.628Z,1.23
2022-10-24T16:19:33.262Z,1.57
2022-10-24T16:22:01.505Z,1.40
2022-10-24T16:24:29.949Z,1.23
2022-10-24T16:26:57.669Z,1.07
2022-10-24T16:29:25.342Z,1.40
2022-10-24T16:31:54.320Z,1.20
2022-10-24T16:34:23.410Z,1.23
2022-10-24T16:36:54.357Z,1.90
2022-10-24T16:39:21.937Z,1.20
2022-10-24T16:41:49.482Z,1.40
2022-10-24T16:44:17.135Z,1.30
2022-10-24T16:46:44.698Z,1.33
2022-10-24T16:49:13.658Z,1.30
2022-10-24T16:51:43.971Z,1.40
2022-10-24T16:54:11.868Z,1.63
2022-10-24T16:56:39.484Z,1.50
2022-10-24T16:59:09.279Z,1.83
2022-10-24T17:01:39.470Z,1.77
2022-10-24T17:04:07.221Z,1.37
2022-10-24T17:06:36.435Z,2.00
2022-10-24T17:09:04.180Z,6.37
2022-10-24T17:11:45.048Z,8.30
2022-10-24T17:14:14.008Z,6.90
2022-10-24T17:16:42.097Z,4.73
2022-10-24T17:19:16.102Z,3.87
2022-10-24T17:21:48.085Z,2.93
2022-10-24T17:24:19.017Z,2.70
2022-10-24T17:26:46.947Z,3.03
2022-10-24T17:29:18.794Z,2.17
2022-10-24T17:31:46.590Z,2.47
2022-10-24T17:34:14.446Z,2.57
2022-10-24T17:36:47.942Z,2.60
2022-10-24T17:41:54.567Z,2.83
2022-10-24T17:44:22.952Z,2.33
2022-10-24T17:46:54.649Z,3.00
2022-10-24T17:49:26.177Z,2.87
2022-10-24T17:51:53.979Z,2.10
2022-10-24T17:54:23.303Z,2.87
2022-10-24T17:56:50.994Z,2.53
2022-10-24T17:59:18.644Z,2.27
2022-10-24T18:01:46.346Z,1.90
2022-10-24T18:04:14.292Z,1.97
2022-10-24T18:06:43.474Z,2.13
2022-10-24T18:09:11.528Z,2.00
2022-10-24T18:11:41.021Z,1.70
2022-10-24T18:14:08.678Z,1.87
2022-10-24T18:16:38.254Z,1.93
2022-10-24T18:19:06.357Z,2.10
2022-10-24T18:21:34.114Z,2.03
2022-10-24T18:24:01.764Z,1.70
2022-10-24T18:26:29.487Z,1.80
2022-10-24T18:28:58.976Z,1.60
2022-10-24T18:31:28.172Z,1.33
2022-10-24T18:33:56.768Z,1.40
2022-10-24T18:36:26.079Z,2.23
2022-10-24T18:38:55.694Z,1.77
2022-10-24T18:41:34.543Z,2.17
2022-10-24T18:44:13.533Z,1.70
2022-10-24T18:46:41.955Z,2.03
2022-10-24T18:49:11.268Z,2.63
2022-10-24T18:51:43.411Z,1.60
2022-10-24T18:56:50.743Z,1.83
2022-10-24T18:59:21.990Z,2.50
2022-10-24T19:02:01.676Z,2.50
2022-10-24T19:04:29.587Z,2.27
2022-10-24T19:07:01.547Z,2.00
2022-10-24T19:09:29.273Z,2.23
2022-10-24T19:11:57.151Z,2.67
2022-10-24T19:14:27.925Z,2.43
2022-10-24T19:16:59.123Z,2.33
2022-10-24T19:19:30.118Z,2.33
2022-10-24T19:21:57.890Z,2.73
2022-10-24T19:24:25.478Z,2.50
2022-10-24T19:26:53.090Z,2.47
2022-10-24T19:29:20.667Z,3.10
2022-10-24T19:31:49.641Z,2.77
2022-10-24T19:34:17.430Z,3.50
2022-10-24T19:36:45.045Z,2.90
2022-10-24T19:39:12.710Z,2.70
2022-10-24T19:41:40.284Z,2.63
2022-10-24T19:44:07.891Z,2.80
2022-10-24T19:46:35.500Z,2.63
2022-10-24T19:49:04.795Z,2.33
2022-10-24T19:51:32.373Z,2.80
2022-10-24T19:53:59.948Z,2.80
2022-10-24T19:56:29.051Z,2.83
2022-10-24T19:58:56.969Z,2.50
2022-10-24T20:01:29.980Z,2.33
2022-10-24T20:03:58.275Z,2.47
2022-10-24T20:06:27.340Z,2.30
2022-10-24T20:08:55.363Z,2.00
2022-10-24T20:11:23.632Z,2.10
2022-10-24T20:13:51.586Z,1.50
2022-10-24T20:16:19.670Z,1.60
2022-10-24T20:18:47.753Z,1.80
2022-10-24T20:21:17.775Z,1.00
2022-10-24T20:23:47.188Z,1.07
2022-10-24T20:26:17.015Z,1.43
2022-10-24T20:28:47.011Z,1.57
2022-10-24T20:31:22.637Z,1.30
2022-10-24T20:33:50.513Z,1.40
2022-10-24T20:36:18.834Z,1.30
2022-10-24T20:38:47.796Z,0.93
2022-10-24T20:41:15.584Z,1.07
2022-10-24T20:43:43.254Z,1.60
2022-10-24T20:46:10.899Z,1.10
2022-10-24T20:48:38.562Z,1.33
2022-10-24T20:51:08.818Z,1.10
2022-10-24T20:53:36.748Z,1.00
2022-10-24T20:56:07.573Z,1.23
2022-10-24T20:58:37.598Z,1.20
2022-10-24T21:01:08.666Z,1.10
2022-10-24T21:03:36.679Z,1.37
2022-10-24T21:06:05.228Z,1.10
2022-10-24T21:08:32.877Z,0.90
2022-10-24T21:11:00.460Z,1.50
2022-10-24T21:13:29.466Z,1.40
2022-10-24T21:15:57.625Z,1.30
2022-10-24T21:18:25.173Z,0.90
2022-10-24T21:20:52.748Z,1.77
2022-10-24T21:23:20.360Z,1.30
2022-10-24T21:25:47.895Z,1.47
2022-10-24T21:28:15.494Z,1.33
2022-10-24T21:30:44.402Z,1.10
2022-10-24T21:33:11.956Z,0.90
2022-10-24T21:35:40.031Z,1.13
2022-10-24T21:38:07.593Z,1.13
2022-10-24T21:40:35.214Z,1.30
2022-10-24T21:43:03.029Z,1.30
2022-10-24T21:45:31.744Z,1.20
2022-10-24T21:48:00.621Z,1.57
2022-10-24T21:50:28.166Z,1.47
2022-10-24T21:52:55.707Z,1.50
2022-10-24T21:55:23.301Z,1.20
2022-10-24T21:57:50.869Z,1.27
2022-10-24T22:00:18.595Z,1.10
2022-10-24T22:02:46.662Z,1.33
2022-10-24T22:05:15.857Z,1.40
2022-10-24T22:07:46.148Z,1.50
2022-10-24T22:10:16.725Z,1.90
2022-10-24T22:12:44.285Z,1.27
2022-10-24T22:15:12.064Z,1.40
2022-10-24T22:17:39.741Z,1.47
2022-10-24T22:20:08.163Z,2.63
2022-10-24T22:22:37.054Z,1.00
2022-10-24T22:25:05.207Z,1.47
2022-10-24T22:27:32.812Z,1.07
2022-10-24T22:30:00.356Z,1.20
2022-10-24T22:32:28.298Z,1.50
2022-10-24T22:34:56.385Z,1.20
2022-10-24T22:37:28.798Z,1.47
2022-10-24T22:39:58.184Z,1.20
2022-10-24T22:42:26.082Z,1.90
2022-10-24T22:44:54.297Z,1.47
2022-10-24T22:47:45.802Z,1.10
2022-10-24T22:50:29.474Z,1.17
2022-10-24T22:52:57.542Z,1.03
2022-10-24T22:55:32.798Z,1.60
2022-10-24T22:58:00.858Z,1.47
2022-10-24T23:00:28.803Z,1.83
2022-10-24T23:03:05.087Z,1.73
2022-10-24T23:05:38.645Z,1.40
2022-10-24T23:08:10.608Z,1.47
2022-10-24T23:10:40.160Z,1.30
2022-10-24T23:13:09.330Z,1.50
2022-10-24T23:15:37.475Z,1.60
2022-10-24T23:18:05.575Z,1.30
2022-10-24T23:20:36.525Z,1.60
2022-10-24T23:23:24.630Z,1.30
2022-10-24T23:26:02.913Z,1.13
2022-10-24T23:28:37.361Z,1.50
2022-10-24T23:31:05.550Z,1.40
2022-10-24T23:33:33.730Z,1.13
2022-10-24T23:36:01.772Z,1.30
2022-10-24T23:38:29.929Z,1.40
2022-10-24T23:40:59.636Z,1.37
2022-10-24T23:43:27.733Z,1.33
2022-10-24T23:46:00.139Z,1.27
2022-10-24T23:48:45.021Z,1.07
2022-10-24T23:51:15.653Z,1.20
2022-10-24T23:53:50.232Z,1.20
2022-10-24T23:56:21.289Z,1.47
2022-10-24T23:58:48.927Z,1.20
